Time;durP1;ratioP1;P1;durP2;ratioP2;P2;SDS_P1;SDS_P2;PMS_P1;PMS_P2;Temp;Humidity;BMP_temperature;BMP_pressure;BME280_temperature;BME280_humidity;BME280_pressure;Samples;Min_cycle;Max_cycle;Signal;HPM_P1;HPM_P2
2022/03/02 00:02:24;;;;;;;21.05;10.90;;;1.00;99.90;;;;;;6339211;22;20387;-82
2022/03/02 00:04:49;;;;;;;21.27;11.90;;;1.00;99.90;;;;;;6338931;22;20080;-82
2022/03/02 00:07:15;;;;;;;17.63;10.13;;;1.00;99.90;;;;;;6339473;22;19995;-83
2022/03/02 00:09:41;;;;;;;20.15;11.60;;;1.00;99.90;;;;;;6339395;22;20072;-82
2022/03/02 00:12:08;;;;;;;24.33;12.68;;;1.10;99.90;;;;;;6339540;22;19998;-82
2022/03/02 00:14:34;;;;;;;22.25;11.68;;;1.10;99.90;;;;;;6312065;22;20401;-82
2022/03/02 00:16:59;;;;;;;25.92;12.32;;;1.10;99.90;;;;;;6339480;22;20060;-82
2022/03/02 00:19:25;;;;;;;21.38;11.65;;;1.10;99.90;;;;;;6339070;22;20010;-82
2022/03/02 00:21:50;;;;;;;25.30;11.60;;;1.00;99.90;;;;;;6311622;22;20335;-82
2022/03/02 00:24:16;;;;;;;17.13;11.05;;;0.90;99.90;;;;;;6311551;22;20010;-82
2022/03/02 00:26:43;;;;;;;21.35;12.23;;;0.90;99.90;;;;;;6311867;22;20013;-81
2022/03/02 00:29:09;;;;;;;17.98;10.70;;;0.90;99.90;;;;;;6339221;22;19998;-82
2022/03/02 00:31:34;;;;;;;23.10;11.05;;;0.80;99.90;;;;;;6311917;22;20044;-82
2022/03/02 00:34:00;;;;;;;20.85;11.20;;;0.80;99.90;;;;;;6338996;22;19999;-82
2022/03/02 00:36:25;;;;;;;20.58;11.02;;;0.80;99.90;;;;;;6311217;22;20029;-82
2022/03/02 00:38:51;;;;;;;19.17;10.85;;;0.80;99.90;;;;;;6339177;22;20010;-82
2022/03/02 00:41:17;;;;;;;17.67;10.63;;;0.70;99.90;;;;;;6311746;22;20086;-82
2022/03/02 00:43:43;;;;;;;19.42;11.30;;;0.70;99.90;;;;;;6338422;22;20429;-82
2022/03/02 00:46:08;;;;;;;19.05;10.50;;;0.70;99.90;;;;;;6338956;22;20788;-82
2022/03/02 00:48:34;;;;;;;27.38;11.45;;;0.70;99.90;;;;;;6311235;22;20055;-82
2022/03/02 00:51:00;;;;;;;19.05;11.77;;;0.70;99.90;;;;;;6311717;22;20003;-82
2022/03/02 00:53:28;;;;;;;22.75;10.73;;;0.70;99.90;;;;;;6338923;22;20413;-81
2022/03/02 00:55:53;;;;;;;21.17;11.13;;;0.60;99.90;;;;;;6338769;22;20075;-82
2022/03/02 00:58:19;;;;;;;18.95;10.00;;;0.60;99.90;;;;;;6339119;22;20022;-82
2022/03/02 01:00:44;;;;;;;17.50;10.30;;;0.60;99.90;;;;;;6338897;22;19998;-82
2022/03/02 01:03:10;;;;;;;20.15;10.50;;;0.60;99.90;;;;;;6338767;22;20006;-82
2022/03/02 01:05:36;;;;;;;23.05;9.65;;;0.70;99.90;;;;;;6338705;22;19999;-82
2022/03/02 01:08:01;;;;;;;18.85;10.10;;;0.70;99.90;;;;;;6338818;22;20306;-82
2022/03/02 01:10:28;;;;;;;18.02;10.13;;;0.70;99.90;;;;;;6339020;22;20357;-82
2022/03/02 01:12:54;;;;;;;21.17;11.05;;;0.70;99.90;;;;;;6338983;22;20321;-82
2022/03/02 01:15:20;;;;;;;20.85;11.13;;;0.70;99.90;;;;;;6311413;22;20003;-82
2022/03/02 01:17:45;;;;;;;18.45;11.07;;;0.60;99.90;;;;;;6338790;22;19995;-82
2022/03/02 01:20:12;;;;;;;24.73;12.15;;;0.60;99.90;;;;;;6338423;22;20013;-81
2022/03/02 01:22:38;;;;;;;19.75;12.02;;;0.60;99.90;;;;;;6338936;22;20079;-82
2022/03/02 01:25:07;;;;;;;24.50;11.68;;;0.60;99.90;;;;;;6310884;22;20014;-81
2022/03/02 01:27:33;;;;;;;20.83;11.32;;;0.50;99.90;;;;;;6338533;22;20034;-82
2022/03/02 01:29:59;;;;;;;18.10;10.52;;;0.50;99.90;;;;;;6311116;22;19995;-82
2022/03/02 01:32:26;;;;;;;24.65;11.02;;;0.50;99.90;;;;;;6338537;22;20006;-82
2022/03/02 01:34:51;;;;;;;17.70;10.88;;;0.50;99.90;;;;;;6338596;22;20051;-82
2022/03/02 01:37:17;;;;;;;18.75;10.93;;;0.50;99.90;;;;;;6338689;22;19995;-82
2022/03/02 01:39:43;;;;;;;19.38;9.90;;;0.50;99.90;;;;;;6338533;22;20003;-82
2022/03/02 01:42:09;;;;;;;26.27;10.82;;;0.70;99.90;;;;;;6310846;22;20508;-82
2022/03/02 01:44:36;;;;;;;18.80;11.05;;;0.60;99.90;;;;;;6310794;22;20046;-82
2022/03/02 01:47:10;;;;;;;22.60;11.45;;;0.70;99.90;;;;;;6338266;22;19999;-82
2022/03/02 01:49:35;;;;;;;24.17;11.27;;;0.70;99.90;;;;;;6310000;22;20030;-82
2022/03/02 01:52:01;;;;;;;20.85;10.68;;;0.70;99.90;;;;;;6338505;22;20412;-82
2022/03/02 01:54:29;;;;;;;22.98;11.52;;;0.70;99.90;;;;;;6337918;22;20010;-82
2022/03/02 01:56:55;;;;;;;23.85;11.38;;;0.60;99.90;;;;;;6310857;22;20002;-82
2022/03/02 01:59:23;;;;;;;23.00;10.15;;;0.60;99.90;;;;;;6338443;22;20428;-82
2022/03/02 02:01:49;;;;;;;18.60;11.10;;;0.60;99.90;;;;;;6338508;22;20011;-82
2022/03/02 02:04:14;;;;;;;16.17;10.07;;;0.60;99.90;;;;;;6338383;22;20025;-82
2022/03/02 02:06:43;;;;;;;19.38;10.02;;;0.50;99.90;;;;;;6310845;22;20006;-82
2022/03/02 02:09:09;;;;;;;14.60;9.05;;;0.50;99.90;;;;;;6338064;22;20006;-81
2022/03/02 02:11:35;;;;;;;19.92;10.68;;;0.50;99.90;;;;;;6338546;22;20016;-82
2022/03/02 02:14:02;;;;;;;19.92;9.93;;;0.50;99.90;;;;;;6338087;22;19999;-81
2022/03/02 02:16:27;;;;;;;21.65;11.60;;;0.40;99.90;;;;;;6338313;22;20003;-81
2022/03/02 02:18:55;;;;;;;21.27;11.45;;;0.40;99.90;;;;;;6338333;22;19998;-81
2022/03/02 02:21:22;;;;;;;17.17;9.77;;;0.30;99.90;;;;;;6310893;22;20014;-81
2022/03/02 02:23:48;;;;;;;18.85;11.15;;;0.20;99.90;;;;;;6338087;22;20308;-81
2022/03/02 02:26:14;;;;;;;20.85;10.52;;;0.20;99.90;;;;;;6338507;22;20070;-82
2022/03/02 02:28:40;;;;;;;16.23;9.60;;;0.20;99.90;;;;;;6310546;22;20031;-82
2022/03/02 02:31:06;;;;;;;14.48;9.07;;;0.20;99.90;;;;;;6310277;22;20429;-82
2022/03/02 02:33:32;;;;;;;21.02;10.00;;;0.20;99.90;;;;;;6338275;22;19995;-82
2022/03/02 02:36:01;;;;;;;17.98;8.95;;;0.20;99.90;;;;;;6338329;22;20026;-82
2022/03/02 02:38:27;;;;;;;16.85;9.57;;;0.20;99.90;;;;;;6338633;22;20010;-82
2022/03/02 02:40:53;;;;;;;19.80;10.00;;;0.20;99.90;;;;;;6338251;22;20003;-82
2022/03/02 02:43:22;;;;;;;19.92;10.35;;;0.20;99.90;;;;;;6338223;22;20346;-82
2022/03/02 02:45:47;;;;;;;25.75;10.65;;;0.10;99.90;;;;;;6337831;22;20039;-82
2022/03/02 02:48:13;;;;;;;18.40;10.18;;;0.10;99.90;;;;;;6338053;22;20002;-82
2022/03/02 02:50:39;;;;;;;13.75;9.55;;;0.10;99.90;;;;;;6310848;22;20013;-82
2022/03/02 02:53:07;;;;;;;16.40;9.93;;;0.10;99.90;;;;;;6338186;22;20405;-82
2022/03/02 02:55:33;;;;;;;18.08;9.07;;;0.10;99.90;;;;;;6338172;22;20006;-82
2022/03/02 02:57:59;;;;;;;16.15;8.50;;;0.20;99.90;;;;;;6310575;22;20034;-82
2022/03/02 03:00:28;;;;;;;14.88;8.88;;;0.10;99.90;;;;;;6338015;22;20003;-82
2022/03/02 03:02:55;;;;;;;20.92;10.23;;;0.20;99.90;;;;;;6337999;22;20002;-82
2022/03/02 03:05:25;;;;;;;20.90;10.43;;;0.20;99.90;;;;;;6337991;22;20003;-82
2022/03/02 03:07:51;;;;;;;18.08;9.85;;;0.20;99.90;;;;;;6338093;22;20023;-82
2022/03/02 03:10:18;;;;;;;19.77;10.25;;;0.20;99.90;;;;;;6338039;22;19999;-82
2022/03/02 03:12:46;;;;;;;15.10;9.30;;;0.10;99.90;;;;;;6309706;22;20003;-82
2022/03/02 03:15:14;;;;;;;22.52;9.63;;;0.10;99.90;;;;;;6310348;22;20061;-82
2022/03/02 03:17:42;;;;;;;15.70;9.43;;;0.10;99.90;;;;;;6310345;22;20011;-81
2022/03/02 03:20:10;;;;;;;15.48;9.18;;;0.10;99.90;;;;;;6338679;22;20403;-82
2022/03/02 03:22:36;;;;;;;14.65;9.18;;;0.00;99.90;;;;;;6339485;22;20002;-82
2022/03/02 03:25:07;;;;;;;15.85;9.20;;;0.00;99.90;;;;;;6339586;22;20010;-82
2022/03/02 03:27:33;;;;;;;15.88;8.82;;;0.00;99.90;;;;;;6340286;22;20018;-82
2022/03/02 03:29:58;;;;;;;17.67;10.25;;;0.00;99.90;;;;;;6312505;22;20071;-82
2022/03/02 03:32:27;;;;;;;20.23;9.82;;;0.10;99.90;;;;;;6339628;22;19995;-82
2022/03/02 03:34:53;;;;;;;17.50;10.98;;;-0.10;99.90;;;;;;6339526;22;20003;-82
2022/03/02 03:37:19;;;;;;;17.80;10.23;;;-0.10;99.90;;;;;;6340078;22;20774;-82
2022/03/02 03:39:46;;;;;;;21.13;10.20;;;-0.10;99.90;;;;;;6339688;22;20001;-82
2022/03/02 03:42:12;;;;;;;14.63;8.75;;;-0.20;99.90;;;;;;6339548;22;20310;-82
2022/03/02 03:44:38;;;;;;;16.13;9.73;;;-0.20;99.90;;;;;;6339268;22;20010;-81
2022/03/02 03:47:04;;;;;;;18.67;9.20;;;-0.20;99.90;;;;;;6339500;22;20003;-81
2022/03/02 03:49:30;;;;;;;13.82;9.00;;;-0.20;99.90;;;;;;6311848;22;20003;-81
2022/03/02 03:51:56;;;;;;;20.05;11.02;;;-0.20;99.90;;;;;;6311977;22;20071;-81
2022/03/02 03:54:21;;;;;;;22.67;10.40;;;-0.20;99.90;;;;;;6311468;22;20021;-81
2022/03/02 03:56:47;;;;;;;15.15;9.07;;;-0.30;99.90;;;;;;6312239;22;20002;-81
2022/03/02 03:59:13;;;;;;;16.75;9.73;;;-0.20;99.90;;;;;;6339956;22;19998;-82
2022/03/02 04:01:42;;;;;;;22.60;11.02;;;-0.20;99.90;;;;;;6311752;22;20014;-82
2022/03/02 04:04:07;;;;;;;16.15;9.45;;;-0.30;99.90;;;;;;6339028;22;20048;-81
2022/03/02 04:06:33;;;;;;;18.13;9.25;;;-0.30;99.90;;;;;;6311793;22;20003;-82
2022/03/02 04:08:59;;;;;;;15.45;9.63;;;-0.30;99.90;;;;;;6312155;22;20003;-81
2022/03/02 04:11:25;;;;;;;18.58;10.18;;;-0.30;99.90;;;;;;6339131;22;20397;-82
2022/03/02 04:13:53;;;;;;;17.02;10.43;;;-0.30;99.90;;;;;;6339360;22;19999;-82
2022/03/02 04:16:19;;;;;;;25.85;10.85;;;-0.40;99.90;;;;;;6339546;22;20006;-82
2022/03/02 04:18:45;;;;;;;21.73;10.35;;;-0.40;99.90;;;;;;6338859;22;19999;-82
2022/03/02 04:21:11;;;;;;;18.27;9.63;;;-0.40;99.90;;;;;;6339366;22;19999;-82
2022/03/02 04:23:37;;;;;;;18.20;10.50;;;-0.40;99.90;;;;;;6339340;22;20127;-82
2022/03/02 04:26:03;;;;;;;17.75;9.65;;;-0.40;99.90;;;;;;6311397;22;20059;-82
2022/03/02 04:28:31;;;;;;;17.77;9.98;;;-0.40;99.90;;;;;;6311716;22;20029;-82
2022/03/02 04:30:56;;;;;;;15.88;9.65;;;-0.30;99.90;;;;;;6339312;22;20363;-82
2022/03/02 04:33:22;;;;;;;16.88;9.30;;;-0.40;99.90;;;;;;6338449;22;20003;-82
2022/03/02 04:35:48;;;;;;;15.93;9.23;;;-0.30;99.90;;;;;;6311597;22;20447;-82
2022/03/02 04:38:13;;;;;;;15.35;9.40;;;-0.30;99.90;;;;;;6339674;22;20374;-82
2022/03/02 04:40:39;;;;;;;18.30;8.75;;;-0.20;99.90;;;;;;6339177;22;20038;-82
2022/03/02 04:43:05;;;;;;;15.13;9.32;;;-0.20;99.90;;;;;;6339360;22;20003;-81
2022/03/02 04:45:31;;;;;;;19.33;9.52;;;-0.20;99.90;;;;;;6338834;22;20015;-82
2022/03/02 04:47:59;;;;;;;13.00;8.25;;;-0.20;99.90;;;;;;6338606;22;20400;-81
2022/03/02 04:50:26;;;;;;;18.13;10.63;;;-0.20;99.90;;;;;;6339166;22;19991;-81
2022/03/02 04:52:57;;;;;;;13.50;8.65;;;-0.30;99.90;;;;;;6339722;22;20018;-82
2022/03/02 04:55:23;;;;;;;15.25;9.13;;;-0.20;99.90;;;;;;6338969;22;19999;-82
2022/03/02 04:57:52;;;;;;;13.00;8.02;;;-0.20;99.90;;;;;;6339467;22;20340;-82
2022/03/02 05:00:29;;;;;;;14.98;8.35;;;-0.20;99.90;;;;;;6311631;22;20007;-82
2022/03/02 05:02:57;;;;;;;13.23;8.25;;;-0.20;99.90;;;;;;6311310;22;20002;-82
2022/03/02 05:05:26;;;;;;;18.85;9.65;;;-0.30;99.90;;;;;;6311349;22;20007;-82
2022/03/02 05:07:52;;;;;;;15.98;9.50;;;-0.30;99.90;;;;;;6339324;22;20293;-82
2022/03/02 05:10:21;;;;;;;12.95;8.18;;;-0.30;99.90;;;;;;6339343;22;20009;-82
2022/03/02 05:12:47;;;;;;;13.98;8.88;;;-0.40;99.90;;;;;;6339686;22;20496;-81
2022/03/02 05:15:19;;;;;;;14.45;7.88;;;-0.40;99.90;;;;;;6311701;22;20093;-82
2022/03/02 05:17:45;;;;;;;17.25;9.32;;;-0.40;99.90;;;;;;6338999;22;20027;-82
2022/03/02 05:20:13;;;;;;;15.10;8.73;;;-0.40;99.90;;;;;;6338807;22;20412;-82
2022/03/02 05:22:39;;;;;;;13.15;8.25;;;-0.40;99.90;;;;;;6310807;22;20007;-81
2022/03/02 05:25:08;;;;;;;15.27;8.30;;;-0.40;99.90;;;;;;6311173;22;20013;-82
2022/03/02 05:27:34;;;;;;;15.80;8.00;;;-0.40;99.90;;;;;;6338778;22;20073;-82
2022/03/02 05:30:00;;;;;;;12.82;7.70;;;-0.40;99.90;;;;;;6338945;22;20428;-82
2022/03/02 05:32:25;;;;;;;14.63;8.50;;;-0.40;99.90;;;;;;6338152;22;19999;-82
2022/03/02 05:34:54;;;;;;;12.20;7.38;;;-0.30;99.90;;;;;;6338269;22;20002;-82
2022/03/02 05:37:19;;;;;;;18.05;9.23;;;-0.30;99.90;;;;;;6338492;22;20006;-82
2022/03/02 05:39:45;;;;;;;13.50;7.55;;;-0.30;99.90;;;;;;6338608;22;20009;-81
2022/03/02 05:42:11;;;;;;;17.92;7.85;;;-0.30;99.90;;;;;;6310830;22;20049;-81
2022/03/02 05:44:36;;;;;;;13.52;7.07;;;-0.30;99.90;;;;;;6338860;22;20053;-82
2022/03/02 05:47:03;;;;;;;12.70;7.93;;;-0.30;99.90;;;;;;6338567;22;19999;-82
2022/03/02 05:49:29;;;;;;;16.77;8.85;;;-0.30;99.90;;;;;;6338215;22;19999;-82
2022/03/02 05:51:54;;;;;;;17.77;8.35;;;-0.40;99.90;;;;;;6338349;22;20095;-81
2022/03/02 05:54:20;;;;;;;15.95;8.80;;;-0.40;99.90;;;;;;6338825;22;20448;-81
2022/03/02 05:56:45;;;;;;;15.73;8.57;;;-0.40;99.90;;;;;;6310905;22;20006;-82
2022/03/02 05:59:14;;;;;;;11.50;7.25;;;-0.30;99.90;;;;;;6338769;22;20364;-82
2022/03/02 06:01:40;;;;;;;16.30;8.60;;;-0.30;99.90;;;;;;6338402;22;20423;-82
2022/03/02 06:04:07;;;;;;;13.80;7.55;;;-0.30;99.90;;;;;;6309213;22;20455;-81
2022/03/02 06:06:34;;;;;;;11.40;7.22;;;-0.30;99.90;;;;;;6310949;22;19999;-81
2022/03/02 06:09:02;;;;;;;12.68;7.65;;;-0.30;99.90;;;;;;6311173;22;20006;-82
2022/03/02 06:11:29;;;;;;;13.00;6.75;;;-0.20;99.90;;;;;;6338677;22;19999;-81
2022/03/02 06:13:56;;;;;;;13.40;7.50;;;-0.20;99.90;;;;;;6338554;22;19995;-82
2022/03/02 06:16:22;;;;;;;19.95;8.77;;;-0.20;99.90;;;;;;6337976;22;20074;-82
2022/03/02 06:18:48;;;;;;;12.40;7.65;;;-0.20;99.90;;;;;;6338062;22;20429;-82
2022/03/02 06:21:27;;;;;;;13.32;7.80;;;-0.10;99.90;;;;;;6310619;22;20034;-82
2022/03/02 06:23:54;;;;;;;14.35;7.45;;;-0.10;99.90;;;;;;6338395;22;20141;-82
2022/03/02 06:26:24;;;;;;;15.65;7.28;;;-0.10;99.90;;;;;;6338486;22;20002;-82
2022/03/02 06:28:53;;;;;;;10.13;6.45;;;-0.10;99.90;;;;;;6338276;22;19999;-82
2022/03/02 06:31:19;;;;;;;16.77;8.23;;;-0.10;99.90;;;;;;6338529;22;19999;-81
2022/03/02 06:33:45;;;;;;;12.10;7.45;;;0.00;99.90;;;;;;6337902;22;19991;-81
2022/03/02 06:36:18;;;;;;;14.55;7.70;;;0.00;99.90;;;;;;6337211;22;20041;-82
2022/03/02 06:38:44;;;;;;;14.25;7.68;;;0.00;99.90;;;;;;6309853;22;20003;-82
2022/03/02 06:41:46;;;;;;;14.07;8.23;;;0.00;99.90;;;;;;6337137;22;20071;-82
2022/03/02 06:44:14;;;;;;;12.13;6.78;;;0.10;99.90;;;;;;6309785;22;20013;-82
2022/03/02 06:46:42;;;;;;;16.05;8.48;;;0.10;99.90;;;;;;6338324;22;20341;-81
2022/03/02 06:49:30;;;;;;;13.27;8.00;;;0.10;99.90;;;;;;6338109;22;19998;-82
2022/03/02 06:51:59;;;;;;;18.27;7.95;;;0.10;99.90;;;;;;6310344;22;20003;-81
2022/03/02 06:54:31;;;;;;;10.95;7.15;;;0.20;99.90;;;;;;6339367;22;20078;-82
2022/03/02 06:57:03;;;;;;;13.40;7.90;;;0.20;99.90;;;;;;6341766;22;20006;-82
2022/03/02 06:59:39;;;;;;;16.35;9.10;;;0.30;99.90;;;;;;6340813;22;20007;-82
2022/03/02 07:02:06;;;;;;;16.90;9.45;;;0.30;99.90;;;;;;6340841;22;20006;-82
2022/03/02 07:04:47;;;;;;;19.85;10.10;;;0.30;99.90;;;;;;6341280;22;20006;-82
2022/03/02 07:07:12;;;;;;;16.10;9.38;;;0.30;99.90;;;;;;6340030;22;20375;-82
2022/03/02 07:09:38;;;;;;;18.65;9.45;;;0.40;99.90;;;;;;6340534;22;20006;-82
2022/03/02 07:12:08;;;;;;;14.55;8.93;;;0.40;99.90;;;;;;6312977;22;20431;-82
2022/03/02 07:14:35;;;;;;;17.45;9.52;;;0.50;99.90;;;;;;6339384;22;20006;-82
2022/03/02 07:17:03;;;;;;;14.52;8.25;;;0.50;99.90;;;;;;6340748;22;20003;-82
2022/03/02 07:19:29;;;;;;;14.18;7.50;;;0.60;99.90;;;;;;6340443;22;20325;-82
2022/03/02 07:21:56;;;;;;;14.60;8.40;;;0.60;99.90;;;;;;6340639;22;19999;-82
2022/03/02 07:24:23;;;;;;;15.65;8.85;;;0.80;99.90;;;;;;6340583;22;20007;-82
2022/03/02 07:26:54;;;;;;;18.45;8.45;;;0.80;99.90;;;;;;6340936;22;20003;-82
2022/03/02 07:29:22;;;;;;;15.15;9.00;;;0.90;99.90;;;;;;6340799;22;20003;-82
2022/03/02 07:31:51;;;;;;;13.60;8.25;;;0.90;99.90;;;;;;6340981;22;19999;-82
2022/03/02 07:34:17;;;;;;;14.70;8.10;;;1.00;99.90;;;;;;6340641;22;20068;-82
2022/03/02 07:36:43;;;;;;;10.55;7.30;;;1.10;99.90;;;;;;6340462;22;20044;-82
2022/03/02 07:39:09;;;;;;;17.17;8.43;;;1.10;99.90;;;;;;6313071;22;19999;-82
2022/03/02 07:41:35;;;;;;;12.63;7.63;;;1.20;99.90;;;;;;6340906;22;20437;-82
2022/03/02 07:44:02;;;;;;;18.67;7.88;;;1.20;99.90;;;;;;6340480;22;20009;-82
2022/03/02 07:46:29;;;;;;;14.05;7.53;;;1.30;99.90;;;;;;6340560;22;20003;-82
2022/03/02 07:48:56;;;;;;;14.80;8.15;;;1.30;99.90;;;;;;6340403;22;20016;-82
2022/03/02 07:51:23;;;;;;;14.07;7.72;;;1.30;99.90;;;;;;6312757;22;20335;-82
2022/03/02 07:53:51;;;;;;;14.02;7.70;;;1.40;99.90;;;;;;6340876;22;20081;-82
2022/03/02 07:56:18;;;;;;;15.40;7.95;;;1.50;99.90;;;;;;6312955;22;20077;-82
2022/03/02 07:58:45;;;;;;;13.95;7.82;;;1.50;99.90;;;;;;6340605;22;20052;-82
2022/03/02 08:01:15;;;;;;;12.40;7.57;;;1.60;99.90;;;;;;6340965;22;20065;-82
2022/03/02 08:03:43;;;;;;;12.35;7.45;;;1.60;99.90;;;;;;6339929;22;20049;-82
2022/03/02 08:06:10;;;;;;;15.85;7.70;;;1.70;99.90;;;;;;6339879;22;20006;-82
2022/03/02 08:08:36;;;;;;;13.25;8.45;;;1.70;99.90;;;;;;6338994;22;20075;-82
2022/03/02 08:11:03;;;;;;;16.10;8.05;;;1.80;99.90;;;;;;6338864;22;20482;-82
2022/03/02 08:13:33;;;;;;;19.88;8.65;;;1.80;99.90;;;;;;6338508;22;19995;-82
2022/03/02 08:15:59;;;;;;;20.67;10.57;;;1.90;99.90;;;;;;6339058;22;20010;-82
2022/03/02 08:18:26;;;;;;;25.17;12.23;;;2.00;99.90;;;;;;6338211;22;20073;-82
2022/03/02 08:20:53;;;;;;;21.25;11.95;;;2.00;99.90;;;;;;6338789;22;19999;-83
2022/03/02 08:23:21;;;;;;;29.58;12.38;;;2.10;99.90;;;;;;6311150;22;20003;-83
2022/03/02 08:25:50;;;;;;;24.00;14.55;;;2.10;99.90;;;;;;6338416;22;20002;-82
2022/03/02 08:28:17;;;;;;;23.13;13.63;;;2.20;99.90;;;;;;6311018;22;20010;-82
2022/03/02 08:30:44;;;;;;;23.83;12.50;;;2.20;99.90;;;;;;6311212;22;20005;-83
2022/03/02 08:33:16;;;;;;;24.40;13.52;;;2.30;99.90;;;;;;6310732;22;20069;-83
2022/03/02 08:35:42;;;;;;;25.42;14.55;;;2.30;99.90;;;;;;6338232;22;20006;-82
2022/03/02 08:38:09;;;;;;;26.60;12.68;;;2.30;99.90;;;;;;6338725;22;20010;-82
2022/03/02 08:40:37;;;;;;;21.00;12.63;;;2.40;99.90;;;;;;6338817;22;19995;-82
2022/03/02 08:43:05;;;;;;;25.60;13.68;;;2.40;99.90;;;;;;6310422;22;20335;-82
2022/03/02 08:45:30;;;;;;;28.02;16.02;;;2.50;99.90;;;;;;6295252;22;20464;-82
2022/03/02 08:48:03;;;;;;;30.75;16.00;;;2.50;99.90;;;;;;6307299;22;19995;-82
2022/03/02 08:50:29;;;;;;;27.33;15.82;;;2.60;99.90;;;;;;6307345;22;19999;-82
2022/03/02 08:52:56;;;;;;;29.77;14.82;;;2.70;99.90;;;;;;6307412;22;20057;-83
2022/03/02 08:55:24;;;;;;;27.45;15.50;;;2.70;99.90;;;;;;6307184;22;20078;-82
2022/03/02 08:57:51;;;;;;;31.75;16.70;;;2.70;99.90;;;;;;6307333;22;20011;-82
2022/03/02 09:00:17;;;;;;;38.05;20.00;;;2.70;99.90;;;;;;6307653;22;19999;-82
2022/03/02 09:02:45;;;;;;;39.63;20.02;;;2.80;99.90;;;;;;6306615;22;20003;-82
2022/03/02 09:05:11;;;;;;;34.53;19.17;;;2.80;99.90;;;;;;6307097;22;20006;-82
2022/03/02 09:07:37;;;;;;;34.03;18.77;;;2.90;99.90;;;;;;6307149;22;20007;-82
2022/03/02 09:10:04;;;;;;;35.97;18.15;;;3.00;99.90;;;;;;6307011;22;20002;-82
2022/03/02 09:12:30;;;;;;;38.08;18.48;;;3.00;99.90;;;;;;6279856;22;20083;-82
2022/03/02 09:14:57;;;;;;;28.92;15.40;;;3.10;99.90;;;;;;6307631;22;20035;-82
2022/03/02 09:17:25;;;;;;;33.67;14.95;;;3.10;99.90;;;;;;6306517;22;19999;-82
2022/03/02 09:19:52;;;;;;;37.30;15.18;;;3.20;99.90;;;;;;6307346;22;20049;-82
2022/03/02 09:22:18;;;;;;;32.58;15.55;;;3.20;99.90;;;;;;6307066;22;19999;-83
2022/03/02 09:24:44;;;;;;;36.58;15.65;;;3.30;99.90;;;;;;6279651;22;20056;-83
2022/03/02 09:27:11;;;;;;;63.22;24.58;;;3.40;99.90;;;;;;6279864;22;20008;-82
2022/03/02 09:29:40;;;;;;;86.20;26.88;;;3.40;99.90;;;;;;6306992;22;20019;-82
2022/03/02 09:32:06;;;;;;;86.10;29.40;;;3.50;99.90;;;;;;6306816;22;19995;-82
2022/03/02 09:34:34;;;;;;;100.10;35.25;;;3.50;99.90;;;;;;6307156;22;20460;-82
2022/03/02 09:36:59;;;;;;;100.43;37.80;;;3.60;99.90;;;;;;6306994;22;20201;-83
2022/03/02 09:39:26;;;;;;;80.80;32.72;;;3.60;99.90;;;;;;6307240;22;20006;-83
2022/03/02 09:42:02;;;;;;;60.42;25.70;;;3.60;99.90;;;;;;6307095;22;20328;-83
2022/03/02 09:44:41;;;;;;;46.42;21.52;;;3.60;99.90;;;;;;6308915;22;19999;-82
2022/03/02 09:47:18;;;;;;;42.55;18.20;;;3.60;99.90;;;;;;6310066;22;20006;-82
2022/03/02 09:49:51;;;;;;;31.75;18.10;;;3.60;99.90;;;;;;6310054;22;20070;-82
2022/03/02 09:52:19;;;;;;;25.90;15.93;;;3.70;99.90;;;;;;6310338;22;20006;-82
2022/03/02 09:54:47;;;;;;;29.92;13.48;;;3.70;99.90;;;;;;6337977;22;20066;-82
2022/03/02 09:57:18;;;;;;;31.65;13.45;;;3.80;99.90;;;;;;6338057;22;20002;-82
2022/03/02 09:59:49;;;;;;;27.65;12.70;;;3.80;99.90;;;;;;6309781;22;20006;-82
2022/03/02 10:02:40;;;;;;;29.75;13.90;;;3.80;99.90;;;;;;6338202;22;19999;-82
2022/03/02 10:05:27;;;;;;;26.73;14.55;;;3.90;99.90;;;;;;6337913;22;20007;-82
2022/03/02 10:08:04;;;;;;;26.38;14.10;;;4.00;99.90;;;;;;6337163;22;20059;-82
2022/03/02 10:10:36;;;;;;;21.98;11.77;;;4.00;99.90;;;;;;6310273;22;19999;-82
2022/03/02 10:13:05;;;;;;;23.67;13.25;;;4.10;99.90;;;;;;6337480;22;19994;-82
2022/03/02 10:15:31;;;;;;;29.58;14.82;;;4.10;99.90;;;;;;6337604;22;19998;-82
2022/03/02 10:18:02;;;;;;;37.20;16.85;;;4.20;99.90;;;;;;6337547;22;20079;-82
2022/03/02 10:20:30;;;;;;;33.50;16.67;;;4.30;99.90;;;;;;6338108;22;20080;-82
2022/03/02 10:23:22;;;;;;;31.25;14.70;;;4.40;99.90;;;;;;6337749;22;20081;-82
2022/03/02 10:26:06;;;;;;;32.40;16.90;;;4.60;99.90;;;;;;6338252;22;20069;-82
2022/03/02 10:28:50;;;;;;;30.80;16.25;;;4.70;99.90;;;;;;6338611;22;20002;-81
2022/03/02 10:31:40;;;;;;;97.30;18.27;;;4.70;99.90;;;;;;6337883;22;20002;-81
2022/03/02 10:34:25;;;;;;;48.22;16.67;;;4.80;99.90;;;;;;6309453;22;20455;-81
2022/03/02 10:37:18;;;;;;;39.97;17.75;;;4.90;99.90;;;;;;6310295;22;20003;-81
2022/03/02 10:39:52;;;;;;;41.78;17.48;;;4.90;99.90;;;;;;6317194;22;20002;-81
2022/03/02 10:42:25;;;;;;;39.50;18.75;;;5.00;99.90;;;;;;6338436;22;20455;-81
2022/03/02 10:45:10;;;;;;;33.72;16.60;;;5.20;99.90;;;;;;6302882;22;20452;-82
2022/03/02 10:47:56;;;;;;;27.27;13.25;;;5.30;99.90;;;;;;6278605;22;20002;-81
2022/03/02 10:50:25;;;;;;;39.00;14.15;;;5.40;99.90;;;;;;6278861;22;20431;-81
2022/03/02 10:52:53;;;;;;;28.17;13.30;;;5.50;99.90;;;;;;6278883;22;20056;-81
2022/03/02 10:55:21;;;;;;;23.27;13.15;;;5.60;99.90;;;;;;6305822;22;20007;-81
2022/03/02 10:57:50;;;;;;;26.77;13.27;;;5.60;99.90;;;;;;6306051;22;20026;-81
2022/03/02 11:00:18;;;;;;;29.65;12.32;;;5.70;99.90;;;;;;6306083;22;20018;-81
2022/03/02 11:02:45;;;;;;;24.95;13.98;;;5.70;99.90;;;;;;6305537;22;20360;-81
2022/03/02 11:05:13;;;;;;;27.73;13.55;;;5.70;99.90;;;;;;6306209;22;20065;-81
2022/03/02 11:07:41;;;;;;;32.60;13.75;;;5.80;99.90;;;;;;6306003;22;20038;-81
2022/03/02 11:10:09;;;;;;;24.42;12.65;;;5.80;99.90;;;;;;6306225;22;20077;-81
2022/03/02 11:12:41;;;;;;;27.63;12.88;;;5.80;99.90;;;;;;6305704;22;20318;-81
2022/03/02 11:15:07;;;;;;;27.40;13.10;;;5.80;99.90;;;;;;6304781;22;20030;-81
2022/03/02 11:17:33;;;;;;;28.33;13.32;;;5.80;99.90;;;;;;6278763;22;20376;-81
2022/03/02 11:20:06;;;;;;;21.33;12.55;;;5.80;99.90;;;;;;6306319;22;20060;-82
2022/03/02 11:22:32;;;;;;;30.80;14.15;;;5.70;99.90;;;;;;6277484;22;20006;-80
2022/03/02 11:24:59;;;;;;;30.10;17.67;;;5.70;99.90;;;;;;6305059;22;20414;-81
2022/03/02 11:27:40;;;;;;;32.38;16.13;;;5.60;99.90;;;;;;6306232;22;20325;-81
2022/03/02 11:30:18;;;;;;;29.45;14.68;;;5.60;99.90;;;;;;6304170;22;20102;-81
2022/03/02 11:32:45;;;;;;;26.20;13.95;;;5.60;99.90;;;;;;6275031;22;20096;-81
2022/03/02 11:35:14;;;;;;;25.75;13.73;;;5.60;99.90;;;;;;6303003;22;20007;-81
2022/03/02 11:37:43;;;;;;;23.45;12.48;;;5.60;99.90;;;;;;6305814;22;20003;-81
2022/03/02 11:40:11;;;;;;;25.25;13.18;;;5.70;99.90;;;;;;6278692;22;20011;-81
2022/03/02 11:42:38;;;;;;;26.40;12.77;;;5.70;99.90;;;;;;6279952;22;20007;-81
2022/03/02 11:45:06;;;;;;;24.40;11.65;;;5.70;99.90;;;;;;6317412;22;20007;-82
2022/03/02 11:47:35;;;;;;;23.73;12.52;;;5.70;99.90;;;;;;6338113;22;20002;-81
2022/03/02 11:50:01;;;;;;;25.33;12.77;;;5.70;99.90;;;;;;6339534;22;20005;-81
2022/03/02 11:52:33;;;;;;;23.42;12.23;;;5.80;99.90;;;;;;6311402;22;20030;-82
2022/03/02 11:55:00;;;;;;;24.38;12.90;;;5.80;99.90;;;;;;6339271;22;20332;-81
2022/03/02 11:57:27;;;;;;;27.75;13.50;;;5.80;99.90;;;;;;6311695;22;20013;-81
2022/03/02 12:00:10;;;;;;;25.65;13.25;;;5.80;99.90;;;;;;6311015;22;20002;-81
2022/03/02 12:02:57;;;;;;;22.02;12.40;;;5.80;99.90;;;;;;6338427;22;20070;-81
2022/03/02 12:05:27;;;;;;;24.10;11.82;;;5.80;99.90;;;;;;6339235;22;19998;-81
2022/03/02 12:08:00;;;;;;;24.20;12.25;;;5.80;99.90;;;;;;6338697;22;20002;-81
2022/03/02 12:10:28;;;;;;;33.70;13.43;;;5.80;99.90;;;;;;6338943;22;20048;-81
2022/03/02 12:12:55;;;;;;;24.77;12.90;;;5.80;99.90;;;;;;6338597;22;20030;-83
2022/03/02 12:15:22;;;;;;;24.92;12.48;;;5.90;99.90;;;;;;6339040;22;20533;-83
2022/03/02 12:17:52;;;;;;;24.20;12.65;;;5.90;99.90;;;;;;6310748;22;20458;-82
2022/03/02 12:20:23;;;;;;;24.73;13.35;;;5.90;99.90;;;;;;6338589;22;20121;-82
2022/03/02 12:22:56;;;;;;;28.67;14.75;;;5.90;99.90;;;;;;6337875;22;20019;-82
2022/03/02 12:25:26;;;;;;;41.75;20.27;;;5.90;99.90;;;;;;6338736;22;20507;-82
2022/03/02 12:28:01;;;;;;;26.98;15.27;;;5.90;99.90;;;;;;6338903;22;20073;-83
2022/03/02 12:30:35;;;;;;;22.67;11.82;;;6.00;99.90;;;;;;6338682;22;20301;-82
2022/03/02 12:33:01;;;;;;;19.95;11.18;;;6.10;99.90;;;;;;6337931;22;19995;-82
2022/03/02 12:35:27;;;;;;;19.52;10.70;;;6.10;99.90;;;;;;6338746;22;19999;-82
2022/03/02 12:37:56;;;;;;;20.42;11.98;;;6.20;99.90;;;;;;6338470;22;20007;-82
2022/03/02 12:40:26;;;;;;;18.98;11.05;;;6.30;99.90;;;;;;6339139;22;20011;-83
2022/03/02 12:42:52;;;;;;;17.52;10.27;;;6.30;99.90;;;;;;6338643;22;20009;-83
2022/03/02 12:45:20;;;;;;;18.42;10.75;;;6.40;99.90;;;;;;6338330;22;20018;-82